Time;durP1;ratioP1;P1;durP2;ratioP2;P2;SDS_P1;SDS_P2;PMS_P1;PMS_P2;Temp;Humidity;BMP_temperature;BMP_pressure;BME280_temperature;BME280_humidity;BME280_pressure;Samples;Min_cycle;Max_cycle;Signal;HPM_P1;HPM_P2
2021/03/21 00:00:46;;;;;;;13.63;8.10;;;-1.00;99.90;;;;;;5081155;28;20116;-78
2021/03/21 00:03:12;;;;;;;;;;;-1.10;99.90;;;;;;5092484;28;20036;-78
2021/03/21 00:05:38;;;;;;;13.13;6.97;;;-1.00;99.90;;;;;;5087953;28;19927;-78
2021/03/21 00:08:08;;;;;;;9.60;6.93;;;-1.00;99.90;;;;;;5088626;28;20474;-78
2021/03/21 00:10:34;;;;;;;13.57;7.57;;;-1.00;99.90;;;;;;5089765;28;20008;-78
2021/03/21 00:13:00;;;;;;;10.27;6.87;;;-0.90;99.90;;;;;;5090657;28;20043;-78
2021/03/21 00:15:27;;;;;;;11.37;7.10;;;-1.00;99.90;;;;;;5085600;28;20020;-78
2021/03/21 00:17:54;;;;;;;12.33;6.80;;;-1.00;99.90;;;;;;5084447;28;20024;-78
2021/03/21 00:20:23;;;;;;;11.13;7.17;;;-0.90;99.90;;;;;;5064053;28;20032;-78
2021/03/21 00:22:48;;;;;;;12.17;7.00;;;-0.90;99.90;;;;;;5077935;28;20048;-78
2021/03/21 00:25:16;;;;;;;12.50;7.83;;;-0.90;99.90;;;;;;5092419;28;20071;-78
2021/03/21 00:27:42;;;;;;;10.73;7.67;;;-0.90;99.90;;;;;;5068005;28;20024;-78
2021/03/21 00:30:10;;;;;;;10.13;7.30;;;-0.90;99.90;;;;;;5081615;28;20027;-78
2021/03/21 00:32:36;;;;;;;10.40;7.10;;;-1.00;99.90;;;;;;5078247;28;20029;-78
2021/03/21 00:35:03;;;;;;;14.17;7.80;;;-1.00;99.90;;;;;;5086915;28;20069;-78
2021/03/21 00:37:28;;;;;;;12.70;7.43;;;-1.00;99.90;;;;;;5078024;28;20095;-78
2021/03/21 00:39:54;;;;;;;11.73;7.57;;;-1.00;99.90;;;;;;5089507;28;20364;-78
2021/03/21 00:42:20;;;;;;;11.43;6.93;;;-0.90;99.90;;;;;;5082033;28;20036;-78
2021/03/21 00:44:45;;;;;;;13.70;6.83;;;-0.90;99.90;;;;;;5074518;28;20016;-78
2021/03/21 00:47:11;;;;;;;11.97;7.17;;;-0.90;99.90;;;;;;5083013;28;20024;-78
2021/03/21 00:49:36;;;;;;;9.70;6.03;;;-0.90;99.90;;;;;;5082452;28;20016;-78
2021/03/21 00:52:02;;;;;;;9.87;6.70;;;-0.90;99.90;;;;;;5072159;28;20052;-78
2021/03/21 00:54:28;;;;;;;9.67;6.67;;;-0.90;99.90;;;;;;5073737;28;20161;-78
2021/03/21 00:56:54;;;;;;;9.37;6.57;;;-0.90;99.90;;;;;;5092288;28;20074;-78
2021/03/21 00:59:19;;;;;;;10.40;6.50;;;-0.80;99.90;;;;;;5079088;28;20024;-78
2021/03/21 01:01:45;;;;;;;10.20;6.70;;;-0.80;99.90;;;;;;5090585;28;20099;-78
2021/03/21 01:04:12;;;;;;;9.23;6.37;;;-0.90;99.90;;;;;;5070157;28;20048;-79
2021/03/21 01:06:38;;;;;;;10.70;6.60;;;-0.90;99.90;;;;;;5063521;28;20361;-78
2021/03/21 01:09:15;;;;;;;12.03;6.73;;;-0.90;99.90;;;;;;5077935;28;20464;-78
2021/03/21 01:11:42;;;;;;;10.03;6.90;;;-0.80;99.90;;;;;;5091507;28;20102;-78
2021/03/21 01:14:09;;;;;;;11.73;7.23;;;-0.90;99.90;;;;;;5074355;28;20111;-78
2021/03/21 01:16:38;;;;;;;9.13;6.60;;;-0.80;99.90;;;;;;5088868;28;20028;-78
2021/03/21 01:19:17;;;;;;;10.17;7.27;;;-0.90;99.90;;;;;;5091101;28;20307;-78
2021/03/21 01:21:45;;;;;;;9.43;6.50;;;-0.90;99.90;;;;;;5089560;28;20047;-78
2021/03/21 01:24:20;;;;;;;8.77;6.53;;;-0.90;99.90;;;;;;5087328;28;20370;-79
2021/03/21 01:26:46;;;;;;;11.13;6.30;;;-0.90;99.90;;;;;;5086791;28;20024;-81
2021/03/21 01:29:12;;;;;;;12.33;6.83;;;-1.00;99.90;;;;;;5088652;28;20026;-81
2021/03/21 01:31:38;;;;;;;12.27;7.07;;;-0.90;99.90;;;;;;5086484;28;20020;-78
2021/03/21 01:34:03;;;;;;;10.63;6.47;;;-0.90;99.90;;;;;;5080962;28;20158;-78
2021/03/21 01:36:32;;;;;;;9.67;6.23;;;-1.00;99.90;;;;;;5095483;28;20440;-78
2021/03/21 01:39:01;;;;;;;7.90;5.90;;;-1.00;99.90;;;;;;5090440;28;20460;-78
2021/03/21 01:41:32;;;;;;;10.13;6.33;;;-0.90;99.90;;;;;;5090321;28;20012;-78
2021/03/21 01:43:58;;;;;;;9.60;5.93;;;-0.80;99.90;;;;;;5086584;28;20028;-78
2021/03/21 01:46:58;;;;;;;10.70;6.23;;;-0.80;99.90;;;;;;5085507;28;20100;-78
2021/03/21 01:49:29;;;;;;;9.43;6.27;;;-0.80;99.90;;;;;;5084979;28;20033;-78
2021/03/21 01:51:56;;;;;;;8.97;6.50;;;-0.90;99.90;;;;;;5093631;28;20032;-78
2021/03/21 01:54:23;;;;;;;8.13;6.00;;;-0.90;99.90;;;;;;5084134;28;20112;-78
2021/03/21 01:56:50;;;;;;;9.77;5.90;;;-0.90;99.90;;;;;;5092569;28;20073;-79
2021/03/21 01:59:20;;;;;;;7.60;5.93;;;-0.90;99.90;;;;;;5083395;28;20028;-79
2021/03/21 02:01:47;;;;;;;8.20;6.10;;;-0.90;99.90;;;;;;5092685;28;20350;-79
2021/03/21 02:04:13;;;;;;;8.87;6.20;;;-0.80;99.90;;;;;;5090919;28;20048;-73
2021/03/21 02:06:39;;;;;;;9.20;5.67;;;-0.80;99.90;;;;;;5087009;28;20023;-73
2021/03/21 02:09:05;;;;;;;9.73;5.93;;;-0.80;99.90;;;;;;5083945;28;20016;-73
2021/03/21 02:11:52;;;;;;;9.10;6.30;;;-0.80;99.90;;;;;;5086732;28;20095;-73
2021/03/21 02:14:47;;;;;;;11.40;6.87;;;-0.80;99.90;;;;;;5087086;28;20098;-73
2021/03/21 02:17:34;;;;;;;9.07;7.00;;;-0.80;99.90;;;;;;5070854;28;20373;-73
2021/03/21 02:20:32;;;;;;;8.03;6.10;;;-0.80;99.90;;;;;;5090680;28;20028;-73
2021/03/21 02:23:06;;;;;;;12.93;6.63;;;-0.90;99.90;;;;;;5045654;28;20040;-73
2021/03/21 02:26:00;;;;;;;9.30;6.00;;;-1.00;99.90;;;;;;5088547;28;20016;-73
2021/03/21 02:28:44;;;;;;;10.33;6.00;;;-0.90;99.90;;;;;;5069979;28;20032;-73
2021/03/21 02:31:33;;;;;;;11.00;6.37;;;-0.90;99.90;;;;;;5088230;28;20020;-73
2021/03/21 02:34:04;;;;;;;10.67;5.97;;;-0.90;99.90;;;;;;5090827;28;20411;-73
2021/03/21 02:36:40;;;;;;;11.57;6.40;;;-0.90;99.90;;;;;;5072336;28;20024;-73
2021/03/21 02:39:29;;;;;;;11.80;7.17;;;-0.90;99.90;;;;;;5084840;28;20562;-73
2021/03/21 02:42:04;;;;;;;8.47;5.47;;;-0.90;99.90;;;;;;5086766;28;20027;-73
2021/03/21 02:44:43;;;;;;;9.40;5.70;;;-0.90;99.90;;;;;;5089351;28;20052;-73
2021/03/21 02:47:16;;;;;;;12.87;7.10;;;-0.90;99.90;;;;;;5085731;28;20024;-74
2021/03/21 02:49:52;;;;;;;10.70;6.23;;;-0.90;99.90;;;;;;5086453;28;20024;-73
2021/03/21 02:52:25;;;;;;;10.27;6.37;;;-0.90;99.90;;;;;;5087277;28;20023;-73
2021/03/21 02:54:59;;;;;;;8.07;5.63;;;-1.00;99.90;;;;;;5072085;28;20069;-73
2021/03/21 02:57:30;;;;;;;8.47;6.37;;;-0.90;99.90;;;;;;5088382;28;20023;-73
2021/03/21 02:59:58;;;;;;;9.17;6.23;;;-1.00;99.90;;;;;;5071263;28;20020;-73
2021/03/21 03:02:29;;;;;;;8.83;6.40;;;-0.90;99.90;;;;;;5068996;28;20040;-78
2021/03/21 03:05:05;;;;;;;9.70;6.00;;;-0.90;99.90;;;;;;5093512;28;20022;-78
2021/03/21 03:07:43;;;;;;;12.13;6.57;;;-1.00;99.90;;;;;;5093438;28;20107;-78
2021/03/21 03:10:22;;;;;;;7.70;5.63;;;-1.00;99.90;;;;;;5092683;28;20047;-78
2021/03/21 03:12:54;;;;;;;10.90;6.30;;;-1.00;99.90;;;;;;5088924;28;20480;-78
2021/03/21 03:15:21;;;;;;;8.70;5.43;;;-0.90;99.90;;;;;;5087391;28;20073;-78
2021/03/21 03:17:57;;;;;;;8.53;5.47;;;-0.90;99.90;;;;;;5085049;28;20480;-78
2021/03/21 03:20:40;;;;;;;8.80;5.60;;;-0.80;99.90;;;;;;5090653;28;20096;-79
2021/03/21 03:23:08;;;;;;;9.03;5.90;;;-0.90;99.90;;;;;;5075357;28;20026;-79
2021/03/21 03:25:52;;;;;;;6.63;5.20;;;-0.80;99.90;;;;;;5093373;28;20430;-78
2021/03/21 03:28:20;;;;;;;8.97;5.67;;;-0.90;99.90;;;;;;5088869;28;20020;-78
2021/03/21 03:31:08;;;;;;;9.10;5.43;;;-0.80;99.90;;;;;;5084013;28;20020;-78
2021/03/21 03:33:34;;;;;;;12.20;5.77;;;-0.90;99.90;;;;;;5076498;28;20103;-78
2021/03/21 03:36:00;;;;;;;7.77;5.57;;;-0.80;99.90;;;;;;5070883;28;20476;-78
2021/03/21 03:38:26;;;;;;;8.13;5.83;;;-0.90;99.90;;;;;;5092992;28;20472;-78
2021/03/21 03:40:56;;;;;;;7.67;5.40;;;-0.80;99.90;;;;;;5084974;28;20020;-79
2021/03/21 03:43:53;;;;;;;8.93;5.47;;;-0.80;99.90;;;;;;5089541;28;20024;-78
2021/03/21 03:46:44;;;;;;;7.97;5.43;;;-0.80;99.90;;;;;;5092859;28;20028;-78
2021/03/21 03:49:16;;;;;;;8.77;5.17;;;-0.80;99.90;;;;;;5085269;28;20051;-79
2021/03/21 03:52:05;;;;;;;7.27;5.30;;;-0.80;99.90;;;;;;5090665;28;20071;-78
2021/03/21 03:54:30;;;;;;;9.00;5.80;;;-0.80;99.90;;;;;;5061334;28;20114;-78
2021/03/21 03:57:22;;;;;;;7.63;5.70;;;-0.80;99.90;;;;;;5081882;28;20146;-78
2021/03/21 04:00:11;;;;;;;9.93;5.50;;;-0.80;99.90;;;;;;5086525;28;20032;-78
2021/03/21 04:03:16;;;;;;;11.20;5.57;;;-0.90;99.90;;;;;;5089552;28;20458;-78
2021/03/21 04:05:57;;;;;;;6.87;4.70;;;-0.80;99.90;;;;;;5041520;28;20035;-78
2021/03/21 04:08:52;;;;;;;9.30;5.70;;;-0.80;99.90;;;;;;5069340;28;20112;-78
2021/03/21 04:11:38;;;;;;;9.00;5.77;;;-0.90;99.90;;;;;;5082681;28;20038;-78
2021/03/21 04:14:11;;;;;;;;;;;-0.80;99.90;;;;;;5070589;28;20024;-78
2021/03/21 04:17:12;;;;;;;7.70;5.07;;;-0.80;99.90;;;;;;5085592;28;19910;-78
2021/03/21 04:19:41;;;;;;;9.27;6.03;;;-0.80;99.90;;;;;;5079831;28;20025;-78
2021/03/21 04:22:15;;;;;;;10.37;5.77;;;-0.80;99.90;;;;;;5068695;28;20020;-78
2021/03/21 04:24:48;;;;;;;7.07;5.07;;;-0.70;99.90;;;;;;5081309;28;20093;-78
2021/03/21 04:27:21;;;;;;;8.73;5.40;;;-0.80;99.90;;;;;;5078619;28;20048;-78
2021/03/21 04:30:06;;;;;;;7.20;4.93;;;-0.80;99.90;;;;;;5081765;28;20024;-78
2021/03/21 04:32:40;;;;;;;10.70;5.13;;;-0.70;99.90;;;;;;5087998;28;20115;-78
2021/03/21 04:35:12;;;;;;;7.95;5.25;;;-0.70;99.90;;;;;;5092552;28;20035;-78
2021/03/21 04:37:40;;;;;;;8.40;5.57;;;-0.70;99.90;;;;;;5067604;28;20470;-78
2021/03/21 04:40:08;;;;;;;8.73;5.23;;;-0.80;99.90;;;;;;5074188;28;20119;-79
2021/03/21 04:42:53;;;;;;;9.03;5.80;;;-0.80;99.90;;;;;;5074279;28;20118;-79
2021/03/21 04:45:27;;;;;;;8.13;5.20;;;-0.80;99.90;;;;;;5080555;28;20020;-78
2021/03/21 04:48:04;;;;;;;8.43;5.73;;;-0.80;99.90;;;;;;5069885;28;20254;-78
2021/03/21 04:50:31;;;;;;;9.73;5.20;;;-0.80;99.90;;;;;;5074013;28;20020;-79
2021/03/21 04:53:36;;;;;;;7.17;4.67;;;-0.80;99.90;;;;;;5076593;28;20020;-78
2021/03/21 04:56:11;;;;;;;8.87;5.80;;;-0.80;99.90;;;;;;5085221;28;20016;-78
2021/03/21 04:58:39;;;;;;;6.38;4.40;;;-0.80;99.90;;;;;;5090027;28;20096;-78
2021/03/21 05:01:10;;;;;;;6.87;4.70;;;-0.80;99.90;;;;;;5088616;28;20020;-79
2021/03/21 05:03:41;;;;;;;8.37;5.50;;;-0.80;99.90;;;;;;5069236;28;20050;-79
2021/03/21 05:06:21;;;;;;;6.90;4.93;;;-0.80;99.90;;;;;;5094789;28;20016;-78
2021/03/21 05:08:56;;;;;;;6.47;4.47;;;-0.80;99.90;;;;;;5095738;28;20052;-79
2021/03/21 05:11:27;;;;;;;7.10;4.50;;;-0.80;99.90;;;;;;5096082;28;20053;-78
2021/03/21 05:14:01;;;;;;;7.57;5.33;;;-0.80;99.90;;;;;;5090818;28;20036;-78
2021/03/21 05:16:36;;;;;;;7.43;4.23;;;-0.70;99.90;;;;;;5075636;28;20094;-79
2021/03/21 05:19:24;;;;;;;7.90;4.77;;;-0.70;99.90;;;;;;5087320;28;20126;-79
2021/03/21 05:22:00;;;;;;;7.33;4.43;;;-0.70;99.90;;;;;;5081685;28;20116;-77
2021/03/21 05:24:35;;;;;;;;;;;-0.70;99.90;;;;;;5092365;28;20012;-77
2021/03/21 05:27:28;;;;;;;8.57;4.23;;;-0.60;99.90;;;;;;5078085;28;19991;-77
2021/03/21 05:30:15;;;;;;;6.70;4.70;;;-0.50;99.90;;;;;;5087010;28;20089;-77
2021/03/21 05:32:43;;;;;;;7.57;4.43;;;-0.50;99.90;;;;;;5078016;28;20099;-78
2021/03/21 05:35:17;;;;;;;7.40;4.40;;;-0.50;99.90;;;;;;5095440;28;20024;-78
2021/03/21 05:38:01;;;;;;;6.50;4.20;;;-0.40;99.90;;;;;;5093460;28;20103;-78
2021/03/21 05:40:50;;;;;;;5.57;4.10;;;-0.40;99.90;;;;;;5082097;28;20024;-77
2021/03/21 05:43:38;;;;;;;5.87;4.10;;;-0.40;99.90;;;;;;5074162;28;20031;-77
2021/03/21 05:46:18;;;;;;;5.67;4.30;;;-0.40;99.90;;;;;;5089114;28;20031;-77
2021/03/21 05:49:13;;;;;;;6.83;4.00;;;-0.40;99.90;;;;;;5086134;28;20017;-77
2021/03/21 05:51:41;;;;;;;5.33;4.03;;;-0.30;99.90;;;;;;5090948;28;20054;-77
2021/03/21 05:54:12;;;;;;;9.40;4.70;;;-0.30;99.90;;;;;;5094935;28;20066;-77
2021/03/21 05:57:03;;;;;;;6.30;4.10;;;-0.30;99.90;;;;;;5091904;28;20020;-79
2021/03/21 06:00:09;;;;;;;9.57;5.47;;;-0.30;99.90;;;;;;5087899;28;20020;-77
2021/03/21 06:03:05;;;;;;;6.23;4.40;;;-0.30;99.90;;;;;;5026433;28;20377;-77
2021/03/21 06:05:53;;;;;;;8.43;4.30;;;-0.20;99.90;;;;;;5085230;28;20024;-78
2021/03/21 06:08:38;;;;;;;6.23;4.13;;;-0.20;99.90;;;;;;5091181;28;20013;-72
2021/03/21 06:11:23;;;;;;;5.73;3.90;;;-0.20;99.90;;;;;;5074773;28;20107;-75
2021/03/21 06:14:23;;;;;;;6.18;3.90;;;-0.30;99.90;;;;;;5090224;28;20025;-72
2021/03/21 06:17:01;;;;;;;8.33;5.47;;;-0.20;99.90;;;;;;5060131;28;20357;-75
2021/03/21 06:19:44;;;;;;;7.93;4.57;;;-0.20;99.90;;;;;;5091298;28;20099;-79
2021/03/21 06:22:40;;;;;;;9.17;5.33;;;-0.20;99.90;;;;;;5085127;28;20461;-78
2021/03/21 06:25:24;;;;;;;;;;;-0.20;99.90;;;;;;5083258;28;20059;-78
2021/03/21 06:28:02;;;;;;;7.97;4.43;;;-0.10;99.90;;;;;;5084519;28;19910;-78
2021/03/21 06:31:24;;;;;;;7.73;4.13;;;-0.10;99.90;;;;;;5087300;28;20345;-75
2021/03/21 06:34:26;;;;;;;7.60;3.93;;;0.00;99.90;;;;;;5088440;28;20043;-75
2021/03/21 06:37:06;;;;;;;7.17;4.20;;;0.00;99.90;;;;;;5087254;28;20027;-75
2021/03/21 06:39:34;;;;;;;7.90;4.30;;;0.10;99.90;;;;;;5088691;28;20102;-75
2021/03/21 06:42:05;;;;;;;6.30;4.30;;;0.00;99.90;;;;;;5089658;28;20020;-75
2021/03/21 06:45:03;;;;;;;5.73;3.90;;;0.10;99.90;;;;;;5070999;28;20534;-75
2021/03/21 06:47:49;;;;;;;9.23;5.70;;;0.20;99.90;;;;;;5089682;28;20321;-75
2021/03/21 06:50:23;;;;;;;6.17;3.90;;;0.30;99.90;;;;;;5087405;28;20038;-75
2021/03/21 06:52:55;;;;;;;6.32;4.03;;;0.30;99.90;;;;;;5086441;28;20603;-75
2021/03/21 06:55:41;;;;;;;5.40;3.60;;;0.40;99.90;;;;;;5084211;28;20465;-75
2021/03/21 06:58:38;;;;;;;;;;;0.30;99.90;;;;;;5068586;28;20035;-75
2021/03/21 07:01:24;;;;;;;5.77;3.77;;;0.40;99.90;;;;;;5054811;28;20379;-75
2021/03/21 07:04:15;;;;;;;6.77;3.97;;;0.50;99.90;;;;;;5088901;28;20046;-75
2021/03/21 07:07:19;;;;;;;6.00;4.37;;;0.60;99.90;;;;;;5017196;28;20477;-75
2021/03/21 07:09:57;;;;;;;8.63;4.57;;;0.60;99.90;;;;;;5075917;28;20074;-75
2021/03/21 07:12:56;;;;;;;8.10;4.60;;;0.60;99.90;;;;;;5090011;28;20024;-71
2021/03/21 07:15:36;;;;;;;5.53;3.83;;;0.70;99.90;;;;;;5088274;28;20077;-75
2021/03/21 07:18:17;;;;;;;5.90;4.20;;;0.70;99.90;;;;;;5089501;28;20058;-75
2021/03/21 07:21:07;;;;;;;6.00;4.20;;;0.90;99.90;;;;;;5086914;28;20024;-74
2021/03/21 07:24:04;;;;;;;7.13;4.10;;;0.90;99.90;;;;;;5090194;28;20023;-74
2021/03/21 07:27:07;;;;;;;5.97;3.93;;;1.00;99.90;;;;;;5072265;28;20107;-74
2021/03/21 07:29:47;;;;;;;8.03;4.20;;;1.10;99.90;;;;;;5086846;28;20024;-73
2021/03/21 07:32:28;;;;;;;5.77;4.07;;;1.20;99.90;;;;;;5087572;28;20020;-73
2021/03/21 07:35:15;;;;;;;5.20;3.83;;;1.10;99.90;;;;;;5070586;28;20464;-73
2021/03/21 07:38:02;;;;;;;4.77;3.57;;;1.20;99.90;;;;;;5084374;28;20113;-73
2021/03/21 07:40:37;;;;;;;6.40;4.00;;;1.20;99.90;;;;;;5088179;28;20384;-73
2021/03/21 07:43:11;;;;;;;6.55;4.00;;;1.30;99.90;;;;;;5089686;28;20540;-73
2021/03/21 07:45:55;;;;;;;7.00;4.13;;;1.30;99.90;;;;;;5086615;28;20012;-73
2021/03/21 07:48:38;;;;;;;7.20;3.83;;;1.40;99.90;;;;;;5086235;28;20012;-73
2021/03/21 07:51:16;;;;;;;7.53;3.80;;;1.50;99.90;;;;;;5089099;28;20137;-72
2021/03/21 07:54:18;;;;;;;6.37;3.70;;;1.60;99.90;;;;;;5087851;28;20140;-81
2021/03/21 07:56:57;;;;;;;6.53;3.93;;;1.50;99.90;;;;;;5069216;28;21307;-81
2021/03/21 07:59:30;;;;;;;6.13;3.90;;;1.40;99.90;;;;;;5067486;28;20029;-81
2021/03/21 08:01:55;;;;;;;10.60;5.10;;;1.50;99.90;;;;;;5092759;28;20344;-80
2021/03/21 08:04:35;;;;;;;5.30;3.80;;;1.40;99.90;;;;;;5091256;28;20104;-81
2021/03/21 08:07:02;;;;;;;6.67;3.50;;;1.30;99.90;;;;;;5072791;28;20047;-81
2021/03/21 08:09:38;;;;;;;6.17;3.50;;;1.40;99.90;;;;;;5074737;28;20024;-81
2021/03/21 08:12:30;;;;;;;6.07;3.70;;;1.30;99.90;;;;;;5090530;28;20081;-82
2021/03/21 08:15:18;;;;;;;5.83;4.03;;;1.30;99.90;;;;;;5057963;28;20085;-81
2021/03/21 08:17:48;;;;;;;6.07;3.43;;;1.40;99.90;;;;;;5088967;28;20028;-73
2021/03/21 08:20:28;;;;;;;7.00;3.80;;;1.50;99.90;;;;;;5087156;28;20086;-72
2021/03/21 08:23:08;;;;;;;6.67;3.60;;;1.50;99.90;;;;;;5085558;28;20044;-72
2021/03/21 08:25:36;;;;;;;7.87;3.50;;;1.50;99.90;;;;;;5084498;28;20396;-72
2021/03/21 08:28:02;;;;;;;5.57;3.33;;;1.50;99.90;;;;;;5075714;28;20508;-72
2021/03/21 08:30:52;;;;;;;6.10;3.30;;;1.50;99.90;;;;;;5127820;22;20112;-74
2021/03/21 08:33:33;;;;;;;7.57;3.40;;;1.50;99.90;;;;;;5088536;28;20028;-73
2021/03/21 08:36:07;;;;;;;5.03;3.33;;;1.50;99.90;;;;;;5093197;28;20065;-73
2021/03/21 08:38:34;;;;;;;6.63;4.10;;;1.50;99.90;;;;;;5076466;28;20047;-73
2021/03/21 08:41:02;;;;;;;7.90;3.30;;;1.50;99.90;;;;;;5091000;28;20028;-73
2021/03/21 08:43:33;;;;;;;4.97;3.50;;;1.60;99.90;;;;;;5092340;28;20035;-73
2021/03/21 08:46:01;;;;;;;6.30;3.40;;;1.60;99.90;;;;;;5088326;28;20069;-74
2021/03/21 08:48:34;;;;;;;5.37;3.40;;;1.50;99.90;;;;;;5071998;28;20024;-73
2021/03/21 08:51:11;;;;;;;6.97;3.93;;;1.50;99.90;;;;;;5090051;28;20016;-73
2021/03/21 08:53:53;;;;;;;13.77;4.57;;;1.50;99.90;;;;;;5087154;28;20146;-72
2021/03/21 08:56:21;;;;;;;5.93;3.40;;;1.60;99.90;;;;;;5092015;28;20032;-73
2021/03/21 08:59:17;;;;;;;4.23;3.60;;;1.60;99.90;;;;;;5104857;22;20048;-72
2021/03/21 09:02:14;;;;;;;4.78;3.13;;;1.60;99.90;;;;;;5093008;28;20047;-72
2021/03/21 09:04:43;;;;;;;5.83;3.43;;;1.70;99.90;;;;;;5235135;22;20056;-80
2021/03/21 09:07:27;;;;;;;7.73;4.00;;;1.70;99.90;;;;;;5088031;28;20032;-80
2021/03/21 09:10:11;;;;;;;6.57;3.87;;;1.60;99.90;;;;;;5088531;28;20058;-80
2021/03/21 09:12:45;;;;;;;5.37;3.33;;;1.80;99.90;;;;;;5088392;28;20096;-78
2021/03/21 09:15:26;;;;;;;5.37;4.23;;;1.80;99.90;;;;;;5089480;28;20024;-80
2021/03/21 09:18:01;;;;;;;5.60;3.13;;;1.80;99.90;;;;;;5088146;28;20290;-81
2021/03/21 09:20:27;;;;;;;5.90;3.60;;;1.70;99.90;;;;;;5092747;28;20035;-81
2021/03/21 09:22:53;;;;;;;5.67;3.40;;;1.90;99.90;;;;;;5086646;28;20028;-82
2021/03/21 09:25:22;;;;;;;5.73;3.43;;;1.90;99.90;;;;;;5086080;28;20466;-82
2021/03/21 09:27:48;;;;;;;6.70;3.67;;;1.90;99.90;;;;;;5067398;28;20069;-83
2021/03/21 09:30:19;;;;;;;5.90;3.47;;;1.90;99.90;;;;;;5091478;28;20580;-82
2021/03/21 09:32:54;;;;;;;7.37;4.33;;;1.90;99.90;;;;;;5083069;28;20036;-80
2021/03/21 09:35:32;;;;;;;6.53;4.03;;;1.90;99.90;;;;;;5081970;28;20106;-81
2021/03/21 09:38:11;;;;;;;5.77;3.70;;;2.00;99.90;;;;;;5095150;28;20028;-82
2021/03/21 09:40:39;;;;;;;7.53;3.73;;;2.00;99.90;;;;;;5076875;28;20020;-81
2021/03/21 09:43:14;;;;;;;5.57;3.80;;;2.00;99.90;;;;;;5075684;28;20024;-81
2021/03/21 09:45:42;;;;;;;5.65;3.35;;;2.10;99.90;;;;;;5088305;28;20063;-81
2021/03/21 09:48:15;;;;;;;5.13;3.50;;;2.00;99.90;;;;;;5094292;28;20087;-75
2021/03/21 09:51:14;;;;;;;6.53;4.17;;;1.90;99.90;;;;;;5090013;28;20017;-83
2021/03/21 09:53:48;;;;;;;5.77;3.73;;;2.00;99.90;;;;;;5085067;28;20634;-75
2021/03/21 09:56:41;;;;;;;6.27;3.50;;;2.10;99.90;;;;;;5072611;28;20302;-75
2021/03/21 09:59:15;;;;;;;9.13;4.53;;;2.20;99.90;;;;;;5075527;28;20052;-76
2021/03/21 10:01:46;;;;;;;4.33;3.20;;;2.20;99.90;;;;;;5090432;28;20020;-76
2021/03/21 10:04:34;;;;;;;6.03;4.10;;;2.20;99.90;;;;;;5088323;28;20323;-76
2021/03/21 10:07:05;;;;;;;6.27;4.10;;;2.10;99.90;;;;;;5087444;28;20143;-76
2021/03/21 10:09:32;;;;;;;8.17;3.63;;;2.10;99.90;;;;;;5073415;28;20405;-76
2021/03/21 10:12:09;;;;;;;7.60;3.93;;;2.00;99.90;;;;;;5089154;28;20089;-75
2021/03/21 10:14:34;;;;;;;6.43;4.30;;;2.00;99.90;;;;;;5087756;28;20023;-76
2021/03/21 10:17:20;;;;;;;6.43;4.10;;;2.00;99.90;;;;;;5088968;28;20465;-76
2021/03/21 10:19:54;;;;;;;8.07;4.00;;;2.00;99.90;;;;;;5085641;28;20032;-76
2021/03/21 10:22:28;;;;;;;6.17;4.13;;;2.00;99.90;;;;;;5069853;28;20027;-75
2021/03/21 10:24:59;;;;;;;11.47;4.00;;;2.10;99.90;;;;;;5090011;28;20032;-75
2021/03/21 10:27:43;;;;;;;6.97;4.50;;;2.00;99.90;;;;;;5091934;28;20258;-75
2021/03/21 10:30:25;;;;;;;4.57;3.40;;;2.00;99.90;;;;;;5089987;28;20017;-76
2021/03/21 10:33:13;;;;;;;9.77;3.87;;;2.20;99.90;;;;;;5083581;28;20029;-75
2021/03/21 10:35:42;;;;;;;11.60;4.27;;;2.20;99.90;;;;;;5083774;28;20031;-76
2021/03/21 10:38:31;;;;;;;6.47;4.03;;;2.20;99.90;;;;;;5076052;28;20050;-76
2021/03/21 10:40:57;;;;;;;8.17;3.90;;;2.30;99.90;;;;;;5090518;28;20353;-76
2021/03/21 10:43:23;;;;;;;6.70;4.03;;;2.50;99.90;;;;;;5091946;28;20031;-76
2021/03/21 10:45:52;;;;;;;8.13;4.40;;;2.50;99.90;;;;;;5068919;28;20048;-75
2021/03/21 10:48:18;;;;;;;8.43;4.70;;;2.50;99.90;;;;;;5088425;28;20113;-75
2021/03/21 10:50:55;;;;;;;8.57;3.97;;;2.50;99.90;;;;;;5088074;28;20475;-73
2021/03/21 10:53:29;;;;;;;10.33;4.27;;;2.60;99.90;;;;;;5065048;28;20032;-76
2021/03/21 10:56:13;;;;;;;5.55;3.75;;;2.50;99.90;;;;;;5088145;28;20051;-76
2021/03/21 10:58:52;;;;;;;7.07;4.13;;;2.50;99.90;;;;;;5086495;28;20476;-76
2021/03/21 11:01:22;;;;;;;8.17;4.20;;;2.50;99.90;;;;;;5088829;28;20012;-76
2021/03/21 11:03:49;;;;;;;8.03;4.43;;;2.50;99.90;;;;;;5070543;28;20133;-76
2021/03/21 11:06:17;;;;;;;7.00;4.23;;;2.60;99.90;;;;;;5083396;28;20037;-76
2021/03/21 11:08:43;;;;;;;7.70;4.63;;;2.70;99.90;;;;;;5070017;28;20035;-76
2021/03/21 11:11:25;;;;;;;7.20;4.70;;;2.80;99.90;;;;;;5087437;28;20024;-76
2021/03/21 11:13:52;;;;;;;9.47;5.20;;;2.90;99.90;;;;;;5068684;28;20029;-76
2021/03/21 11:16:21;;;;;;;7.27;4.50;;;2.90;99.90;;;;;;5071882;28;20100;-76
2021/03/21 11:19:01;;;;;;;11.50;5.00;;;3.00;99.90;;;;;;5087944;28;20396;-76
2021/03/21 11:21:34;;;;;;;7.70;4.67;;;3.00;99.90;;;;;;5073507;28;20074;-76
2021/03/21 11:24:15;;;;;;;7.43;5.13;;;3.00;99.90;;;;;;5087856;28;20077;-75
2021/03/21 11:26:41;;;;;;;7.33;5.10;;;3.10;99.90;;;;;;5088017;28;20023;-85
2021/03/21 11:29:09;;;;;;;10.03;4.43;;;3.10;99.90;;;;;;5068150;28;20051;-84
2021/03/21 11:31:42;;;;;;;9.73;5.73;;;3.00;99.90;;;;;;5083323;28;20020;-83
2021/03/21 11:34:37;;;;;;;7.93;5.10;;;2.80;99.90;;;;;;5088899;28;20502;-81
2021/03/21 11:37:13;;;;;;;6.88;5.00;;;2.80;99.90;;;;;;5072656;28;20124;-82
2021/03/21 11:39:52;;;;;;;8.20;5.10;;;2.80;99.90;;;;;;5089475;28;20039;-81
2021/03/21 11:42:25;;;;;;;9.57;5.30;;;2.80;99.90;;;;;;5089541;28;20019;-82
2021/03/21 11:44:53;;;;;;;7.83;4.93;;;2.60;99.90;;;;;;5088070;28;20118;-82
2021/03/21 11:47:26;;;;;;;12.70;5.33;;;2.70;99.90;;;;;;5088619;28;20012;-83
2021/03/21 11:49:53;;;;;;;7.40;5.20;;;2.70;99.90;;;;;;5087021;28;20102;-81
2021/03/21 11:52:20;;;;;;;6.60;5.00;;;2.50;99.90;;;;;;5087644;28;20074;-83
2021/03/21 11:54:46;;;;;;;7.50;4.80;;;2.60;99.90;;;;;;5088714;28;20425;-83
2021/03/21 11:57:25;;;;;;;8.27;5.47;;;2.50;99.90;;;;;;5088183;28;20073;-83
2021/03/21 12:00:06;;;;;;;8.67;5.53;;;2.50;99.90;;;;;;5088790;28;20379;-84
2021/03/21 12:02:41;;;;;;;8.73;5.60;;;2.60;99.90;;;;;;5085920;28;20023;-75
2021/03/21 12:05:20;;;;;;;8.27;5.13;;;2.60;99.90;;;;;;5085357;28;20507;-76
2021/03/21 12:07:47;;;;;;;9.90;6.03;;;2.60;99.90;;;;;;5088510;28;20555;-81
2021/03/21 12:10:38;;;;;;;7.93;5.03;;;2.60;99.90;;;;;;5090145;28;20032;-86
2021/03/21 12:13:23;;;;;;;6.93;4.90;;;2.60;99.90;;;;;;5081451;28;20035;-86
2021/03/21 12:15:51;;;;;;;8.53;5.47;;;2.50;99.90;;;;;;5088915;28;20034;-86
2021/03/21 12:18:18;;;;;;;12.27;5.20;;;2.50;99.90;;;;;;5091267;28;20520;-87
2021/03/21 12:21:16;;;;;;;9.10;5.27;;;2.40;99.90;;;;;;5070594;28;20074;-75
2021/03/21 12:23:49;;;;;;;9.30;5.20;;;2.50;99.90;;;;;;5041527;28;20512;-75
2021/03/21 12:26:48;;;;;;;11.37;5.80;;;2.40;99.90;;;;;;5086502;28;20024;-75
2021/03/21 12:29:23;;;;;;;8.33;5.43;;;2.50;99.90;;;;;;5065395;28;20477;-75
2021/03/21 12:31:50;;;;;;;9.48;5.40;;;2.50;99.90;;;;;;5070257;28;20065;-75
2021/03/21 12:34:36;;;;;;;11.73;5.57;;;2.40;99.90;;;;;;5067178;28;20033;-75
2021/03/21 12:37:16;;;;;;;11.45;5.50;;;2.50;99.90;;;;;;5086730;28;20035;-75
2021/03/21 12:40:11;;;;;;;10.70;6.37;;;2.40;99.90;;;;;;5060838;28;20024;-79
2021/03/21 12:42:40;;;;;;;9.13;6.20;;;2.60;99.90;;;;;;5086335;28;20728;-80
2021/03/21 12:45:11;;;;;;;9.07;5.80;;;2.60;99.90;;;;;;5070834;28;20456;-83
2021/03/21 12:47:41;;;;;;;10.57;5.77;;;2.60;99.90;;;;;;5066794;28;20077;-82
2021/03/21 12:50:32;;;;;;;11.33;6.07;;;2.50;99.90;;;;;;5062339;28;20032;-79
2021/03/21 12:52:59;;;;;;;10.93;6.47;;;2.60;99.90;;;;;;5082390;28;20067;-79
2021/03/21 12:55:25;;;;;;;10.37;6.50;;;2.70;99.90;;;;;;5062202;28;20029;-79
2021/03/21 12:57:54;;;;;;;13.57;6.30;;;2.70;99.90;;;;;;5067966;28;20465;-80
2021/03/21 13:00:30;;;;;;;13.93;6.97;;;2.80;99.90;;;;;;5065965;28;20027;-79
2021/03/21 13:02:59;;;;;;;9.87;6.43;;;2.70;99.90;;;;;;5086203;28;20047;-79
2021/03/21 13:05:37;;;;;;;11.57;6.43;;;2.60;99.90;;;;;;5086352;28;20051;-80
2021/03/21 13:08:03;;;;;;;16.10;8.00;;;2.60;99.90;;;;;;5085887;28;20032;-80
2021/03/21 13:10:33;;;;;;;12.53;7.13;;;2.50;99.90;;;;;;5085410;28;20060;-75
2021/03/21 13:13:00;;;;;;;10.27;6.17;;;2.50;99.90;;;;;;5089528;28;20035;-75
2021/03/21 13:15:27;;;;;;;11.43;6.40;;;2.60;99.90;;;;;;5092680;28;20054;-85
2021/03/21 13:17:53;;;;;;;12.67;6.60;;;2.50;99.90;;;;;;5088928;28;20043;-85
2021/03/21 13:20:20;;;;;;;12.17;7.13;;;2.60;99.90;;;;;;5088823;28;20031;-86
2021/03/21 13:22:46;;;;;;;12.60;7.07;;;2.60;99.90;;;;;;5088382;28;20074;-86
2021/03/21 13:25:23;;;;;;;11.50;7.30;;;2.60;99.90;;;;;;5086102;28;20035;-86
2021/03/21 13:28:02;;;;;;;11.33;7.10;;;2.50;99.90;;;;;;5084287;28;20472;-73
2021/03/21 13:30:31;;;;;;;9.63;5.90;;;2.70;99.90;;;;;;5080498;28;20028;-79
2021/03/21 13:32:57;;;;;;;11.23;7.00;;;2.60;99.90;;;;;;5078970;28;20028;-80
2021/03/21 13:35:26;;;;;;;9.93;6.33;;;2.50;99.90;;;;;;5090623;28;20020;-79
2021/03/21 13:37:52;;;;;;;9.50;6.47;;;2.60;99.90;;;;;;5088389;28;20029;-79